Terminal Aerodrome Forecast
Issued by NWS

Home | Current Version | Previous Version | Text Only | Print | Product List | Glossary On
Versions: 1 2 3 4 5 6 7 8 9 10 11 12 13 14 15 16 17 18 19 20 21 22 23
000
FTPQ31 PGUM 292320
TAFGUM
TAF

TAF
PTRO 292320Z 3000/3024 06012G18KT P6SM VCSH SCT016 SCT030
     FM302300 02013G20KT P6SM VCSH SCT016 SCT030 SCT120=

USA.gov is the U.S. government's official web portal to all federal, state and local government web resources and services.